Osceola, Washington
Current Conditions -  °F | °C
As of 3:53 PM on Wednesday 26 Nov 2014 (Local Time) from KRNT Reporting Station
Overcast Overcast  
Wind Chill: 59°   Ceiling: 4300
Heat Index: 59°   Visibility: 10mi
Dew Point: 53°   Wind: 5mph
Humidity: 81%   Direction: 160°SSE
Pressure: 30.01"   Gusts: NA
Location:  47.1782°N, 121.641°W
Report Text: KRNT 262353Z 16004KT 10SM OVC043 15/12 A3001 RMK AO2 RAB34E41 SLP166 P0000 60000 T01500117 10161 20150 58018
Loading
Personal Weather Stations






























Interactive Weather Map New forecast layout! Learn more

10-Day Weather Forecast

Advertisements
Track Severe Weather on mobile